sensor_id;sensor_type;location;lat;lon;timestamp;temperature;humidity
23869;DHT22;12115;47.128;15.422;2024-03-29T00:02:24;6.80;99.90
23869;DHT22;12115;47.128;15.422;2024-03-29T00:04:50;6.60;99.90
23869;DHT22;12115;47.128;15.422;2024-03-29T00:07:19;6.60;99.90
23869;DHT22;12115;47.128;15.422;2024-03-29T00:09:45;6.60;99.90
23869;DHT22;12115;47.128;15.422;2024-03-29T00:12:12;6.60;99.90
23869;DHT22;12115;47.128;15.422;2024-03-29T00:14:38;6.60;99.90
23869;DHT22;12115;47.128;15.422;2024-03-29T00:17:07;6.50;99.90
23869;DHT22;12115;47.128;15.422;2024-03-29T00:19:34;6.40;99.90
23869;DHT22;12115;47.128;15.422;2024-03-29T00:22:00;6.40;99.90
23869;DHT22;12115;47.128;15.422;2024-03-29T00:24:27;6.40;99.90
23869;DHT22;12115;47.128;15.422;2024-03-29T00:26:56;6.30;99.90
23869;DHT22;12115;47.128;15.422;2024-03-29T00:29:23;6.20;99.90
23869;DHT22;12115;47.128;15.422;2024-03-29T00:31:49;6.30;99.90
23869;DHT22;12115;47.128;15.422;2024-03-29T00:34:15;6.30;99.90
23869;DHT22;12115;47.128;15.422;2024-03-29T00:36:41;6.20;99.90
23869;DHT22;12115;47.128;15.422;2024-03-29T00:39:07;6.20;99.90
23869;DHT22;12115;47.128;15.422;2024-03-29T00:41:38;6.20;99.90
23869;DHT22;12115;47.128;15.422;2024-03-29T00:44:04;6.10;99.90
23869;DHT22;12115;47.128;15.422;2024-03-29T00:46:30;6.00;99.90
23869;DHT22;12115;47.128;15.422;2024-03-29T00:48:56;5.90;99.90
23869;DHT22;12115;47.128;15.422;2024-03-29T00:51:24;5.90;99.90
23869;DHT22;12115;47.128;15.422;2024-03-29T00:53:50;6.00;99.90
23869;DHT22;12115;47.128;15.422;2024-03-29T00:56:16;5.90;99.90
23869;DHT22;12115;47.128;15.422;2024-03-29T00:58:42;5.80;99.90
23869;DHT22;12115;47.128;15.422;2024-03-29T01:01:08;5.80;99.90
23869;DHT22;12115;47.128;15.422;2024-03-29T01:03:35;5.80;99.90
23869;DHT22;12115;47.128;15.422;2024-03-29T01:06:01;5.80;99.90
23869;DHT22;12115;47.128;15.422;2024-03-29T01:08:27;5.90;99.90
23869;DHT22;12115;47.128;15.422;2024-03-29T01:10:54;5.90;99.90
23869;DHT22;12115;47.128;15.422;2024-03-29T01:13:20;5.90;99.90
23869;DHT22;12115;47.128;15.422;2024-03-29T01:15:46;5.60;99.90
23869;DHT22;12115;47.128;15.422;2024-03-29T01:18:12;5.60;99.90
23869;DHT22;12115;47.128;15.422;2024-03-29T01:20:38;5.60;99.90
23869;DHT22;12115;47.128;15.422;2024-03-29T01:23:04;5.60;99.90
23869;DHT22;12115;47.128;15.422;2024-03-29T01:25:30;5.60;99.90
23869;DHT22;12115;47.128;15.422;2024-03-29T01:27:57;5.50;99.90
23869;DHT22;12115;47.128;15.422;2024-03-29T01:30:23;5.40;99.90
23869;DHT22;12115;47.128;15.422;2024-03-29T01:32:49;5.40;99.90
23869;DHT22;12115;47.128;15.422;2024-03-29T01:35:15;5.30;99.90
23869;DHT22;12115;47.128;15.422;2024-03-29T01:37:41;5.40;99.90
23869;DHT22;12115;47.128;15.422;2024-03-29T01:40:08;5.40;99.90
23869;DHT22;12115;47.128;15.422;2024-03-29T01:42:36;5.40;99.90
23869;DHT22;12115;47.128;15.422;2024-03-29T01:45:02;5.40;99.90
23869;DHT22;12115;47.128;15.422;2024-03-29T01:47:28;5.40;99.90
23869;DHT22;12115;47.128;15.422;2024-03-29T01:49:54;5.40;99.90
23869;DHT22;12115;47.128;15.422;2024-03-29T01:52:21;5.40;99.90
23869;DHT22;12115;47.128;15.422;2024-03-29T01:54:48;5.40;99.90
23869;DHT22;12115;47.128;15.422;2024-03-29T01:57:16;5.50;99.90
23869;DHT22;12115;47.128;15.422;2024-03-29T01:59:43;5.50;99.90
23869;DHT22;12115;47.128;15.422;2024-03-29T02:02:10;5.50;99.90
23869;DHT22;12115;47.128;15.422;2024-03-29T02:04:37;5.30;99.90
23869;DHT22;12115;47.128;15.422;2024-03-29T02:07:03;5.30;99.90
23869;DHT22;12115;47.128;15.422;2024-03-29T02:09:30;5.20;99.90
23869;DHT22;12115;47.128;15.422;2024-03-29T02:11:56;5.20;99.90
23869;DHT22;12115;47.128;15.422;2024-03-29T02:14:22;5.20;99.90
23869;DHT22;12115;47.128;15.422;2024-03-29T02:16:48;5.20;99.90
23869;DHT22;12115;47.128;15.422;2024-03-29T02:19:15;5.20;99.90
23869;DHT22;12115;47.128;15.422;2024-03-29T02:21:45;5.10;99.90
23869;DHT22;12115;47.128;15.422;2024-03-29T02:24:13;5.10;99.90
23869;DHT22;12115;47.128;15.422;2024-03-29T02:26:42;5.00;99.90
23869;DHT22;12115;47.128;15.422;2024-03-29T02:29:08;5.00;99.90
23869;DHT22;12115;47.128;15.422;2024-03-29T02:31:38;5.00;99.90
23869;DHT22;12115;47.128;15.422;2024-03-29T02:34:04;5.00;99.90
23869;DHT22;12115;47.128;15.422;2024-03-29T02:36:33;5.00;99.90
23869;DHT22;12115;47.128;15.422;2024-03-29T02:38:59;5.00;99.90
23869;DHT22;12115;47.128;15.422;2024-03-29T02:41:25;5.00;99.90
23869;DHT22;12115;47.128;15.422;2024-03-29T02:43:53;4.90;99.90
23869;DHT22;12115;47.128;15.422;2024-03-29T02:46:19;4.90;99.90
23869;DHT22;12115;47.128;15.422;2024-03-29T02:48:45;5.00;99.90
23869;DHT22;12115;47.128;15.422;2024-03-29T02:51:12;4.90;99.90
23869;DHT22;12115;47.128;15.422;2024-03-29T02:53:38;4.90;99.90
23869;DHT22;12115;47.128;15.422;2024-03-29T02:56:05;4.90;99.90
23869;DHT22;12115;47.128;15.422;2024-03-29T02:58:35;4.70;99.90
23869;DHT22;12115;47.128;15.422;2024-03-29T03:01:10;4.70;99.90
23869;DHT22;12115;47.128;15.422;2024-03-29T03:03:37;4.70;99.90
23869;DHT22;12115;47.128;15.422;2024-03-29T03:06:03;4.70;99.90
23869;DHT22;12115;47.128;15.422;2024-03-29T03:08:29;4.70;99.90
23869;DHT22;12115;47.128;15.422;2024-03-29T03:11:14;4.60;99.90
23869;DHT22;12115;47.128;15.422;2024-03-29T03:13:41;4.50;99.90
23869;DHT22;12115;47.128;15.422;2024-03-29T03:16:07;4.50;99.90
23869;DHT22;12115;47.128;15.422;2024-03-29T03:18:33;4.50;99.90
23869;DHT22;12115;47.128;15.422;2024-03-29T03:20:59;4.50;99.90
23869;DHT22;12115;47.128;15.422;2024-03-29T03:23:25;4.50;99.90
23869;DHT22;12115;47.128;15.422;2024-03-29T03:25:58;4.50;99.90
23869;DHT22;12115;47.128;15.422;2024-03-29T03:28:26;4.50;99.90
23869;DHT22;12115;47.128;15.422;2024-03-29T03:30:53;4.60;99.90
23869;DHT22;12115;47.128;15.422;2024-03-29T03:33:20;4.50;99.90
23869;DHT22;12115;47.128;15.422;2024-03-29T03:35:47;4.50;99.90
23869;DHT22;12115;47.128;15.422;2024-03-29T03:38:13;4.50;99.90
23869;DHT22;12115;47.128;15.422;2024-03-29T03:40:39;4.50;99.90
23869;DHT22;12115;47.128;15.422;2024-03-29T03:43:06;4.50;99.90
23869;DHT22;12115;47.128;15.422;2024-03-29T03:45:36;4.50;99.90
23869;DHT22;12115;47.128;15.422;2024-03-29T03:48:07;4.40;99.90
23869;DHT22;12115;47.128;15.422;2024-03-29T03:50:33;4.40;99.90
23869;DHT22;12115;47.128;15.422;2024-03-29T03:53:00;4.40;99.90
23869;DHT22;12115;47.128;15.422;2024-03-29T03:55:26;4.40;99.90
23869;DHT22;12115;47.128;15.422;2024-03-29T03:57:53;4.40;99.90
23869;DHT22;12115;47.128;15.422;2024-03-29T04:00:20;4.30;99.90
23869;DHT22;12115;47.128;15.422;2024-03-29T04:02:50;4.30;99.90
23869;DHT22;12115;47.128;15.422;2024-03-29T04:05:20;4.20;99.90
23869;DHT22;12115;47.128;15.422;2024-03-29T04:07:47;4.20;99.90
23869;DHT22;12115;47.128;15.422;2024-03-29T04:10:14;4.10;99.90
23869;DHT22;12115;47.128;15.422;2024-03-29T04:12:41;4.10;99.90
23869;DHT22;12115;47.128;15.422;2024-03-29T04:15:07;4.10;99.90
23869;DHT22;12115;47.128;15.422;2024-03-29T04:17:36;4.10;99.90
23869;DHT22;12115;47.128;15.422;2024-03-29T04:20:02;4.10;99.90
23869;DHT22;12115;47.128;15.422;2024-03-29T04:22:28;4.10;99.90
23869;DHT22;12115;47.128;15.422;2024-03-29T04:24:55;4.00;99.90
23869;DHT22;12115;47.128;15.422;2024-03-29T04:27:21;4.00;99.90
23869;DHT22;12115;47.128;15.422;2024-03-29T04:29:51;4.00;99.90
23869;DHT22;12115;47.128;15.422;2024-03-29T04:32:17;3.90;99.90
23869;DHT22;12115;47.128;15.422;2024-03-29T04:34:46;3.80;99.90
23869;DHT22;12115;47.128;15.422;2024-03-29T04:37:13;3.90;99.90
23869;DHT22;12115;47.128;15.422;2024-03-29T04:39:39;3.80;99.90
23869;DHT22;12115;47.128;15.422;2024-03-29T04:42:06;3.80;99.90
23869;DHT22;12115;47.128;15.422;2024-03-29T04:44:32;3.80;99.90
23869;DHT22;12115;47.128;15.422;2024-03-29T04:47:00;3.80;99.90
23869;DHT22;12115;47.128;15.422;2024-03-29T04:49:27;3.80;99.90
23869;DHT22;12115;47.128;15.422;2024-03-29T04:52:00;3.80;99.90
23869;DHT22;12115;47.128;15.422;2024-03-29T04:54:27;3.80;99.90
23869;DHT22;12115;47.128;15.422;2024-03-29T04:56:54;3.70;99.90
23869;DHT22;12115;47.128;15.422;2024-03-29T04:59:30;3.70;99.90
23869;DHT22;12115;47.128;15.422;2024-03-29T05:02:01;3.70;99.90
23869;DHT22;12115;47.128;15.422;2024-03-29T05:04:29;3.70;99.90
23869;DHT22;12115;47.128;15.422;2024-03-29T05:06:56;3.70;99.90
23869;DHT22;12115;47.128;15.422;2024-03-29T05:09:23;3.70;99.90
23869;DHT22;12115;47.128;15.422;2024-03-29T05:11:50;3.70;99.90
23869;DHT22;12115;47.128;15.422;2024-03-29T05:14:17;3.70;99.90
23869;DHT22;12115;47.128;15.422;2024-03-29T05:16:45;3.70;99.90
23869;DHT22;12115;47.128;15.422;2024-03-29T05:19:12;3.70;99.90
23869;DHT22;12115;47.128;15.422;2024-03-29T05:21:39;3.70;99.90
23869;DHT22;12115;47.128;15.422;2024-03-29T05:24:05;3.70;99.90
23869;DHT22;12115;47.128;15.422;2024-03-29T05:26:33;3.70;99.90
23869;DHT22;12115;47.128;15.422;2024-03-29T05:28:59;3.70;99.90
23869;DHT22;12115;47.128;15.422;2024-03-29T05:31:26;3.80;99.90
23869;DHT22;12115;47.128;15.422;2024-03-29T05:33:53;3.80;99.90
23869;DHT22;12115;47.128;15.422;2024-03-29T05:36:19;3.80;99.90
23869;DHT22;12115;47.128;15.422;2024-03-29T05:38:45;3.80;99.90
23869;DHT22;12115;47.128;15.422;2024-03-29T05:41:11;3.80;99.90
23869;DHT22;12115;47.128;15.422;2024-03-29T05:43:41;3.90;99.90
23869;DHT22;12115;47.128;15.422;2024-03-29T05:46:07;4.00;99.90
23869;DHT22;12115;47.128;15.422;2024-03-29T05:48:33;4.00;99.90
23869;DHT22;12115;47.128;15.422;2024-03-29T05:50:59;4.10;99.90
23869;DHT22;12115;47.128;15.422;2024-03-29T05:53:26;4.10;99.90
23869;DHT22;12115;47.128;15.422;2024-03-29T05:55:52;4.20;99.90
23869;DHT22;12115;47.128;15.422;2024-03-29T05:58:18;4.20;99.90
23869;DHT22;12115;47.128;15.422;2024-03-29T06:00:46;4.30;99.90
23869;DHT22;12115;47.128;15.422;2024-03-29T06:03:12;4.30;99.90
23869;DHT22;12115;47.128;15.422;2024-03-29T06:05:40;4.30;99.90
23869;DHT22;12115;47.128;15.422;2024-03-29T06:08:07;4.40;99.90
23869;DHT22;12115;47.128;15.422;2024-03-29T06:10:33;4.40;99.90
23869;DHT22;12115;47.128;15.422;2024-03-29T06:13:00;4.50;99.90
23869;DHT22;12115;47.128;15.422;2024-03-29T06:15:33;4.60;99.90
23869;DHT22;12115;47.128;15.422;2024-03-29T06:18:18;4.60;99.90
23869;DHT22;12115;47.128;15.422;2024-03-29T06:20:46;4.70;99.90
23869;DHT22;12115;47.128;15.422;2024-03-29T06:23:12;4.70;99.90
23869;DHT22;12115;47.128;15.422;2024-03-29T06:25:39;4.80;99.90
23869;DHT22;12115;47.128;15.422;2024-03-29T06:28:05;4.80;99.90
23869;DHT22;12115;47.128;15.422;2024-03-29T06:30:32;4.90;99.90
23869;DHT22;12115;47.128;15.422;2024-03-29T06:32:58;5.00;99.90
23869;DHT22;12115;47.128;15.422;2024-03-29T06:35:26;5.00;99.90
23869;DHT22;12115;47.128;15.422;2024-03-29T06:37:52;5.10;99.90
23869;DHT22;12115;47.128;15.422;2024-03-29T06:40:18;5.20;99.90
23869;DHT22;12115;47.128;15.422;2024-03-29T06:42:45;5.30;99.90
23869;DHT22;12115;47.128;15.422;2024-03-29T06:45:11;5.30;99.90
23869;DHT22;12115;47.128;15.422;2024-03-29T06:47:37;5.30;99.90
23869;DHT22;12115;47.128;15.422;2024-03-29T06:50:03;5.40;99.90
23869;DHT22;12115;47.128;15.422;2024-03-29T06:52:30;5.40;99.90
23869;DHT22;12115;47.128;15.422;2024-03-29T06:54:56;5.50;99.90
23869;DHT22;12115;47.128;15.422;2024-03-29T06:57:23;5.60;99.90
23869;DHT22;12115;47.128;15.422;2024-03-29T06:59:51;5.60;99.90
23869;DHT22;12115;47.128;15.422;2024-03-29T07:02:18;5.70;99.90
23869;DHT22;12115;47.128;15.422;2024-03-29T07:04:44;5.80;99.90
23869;DHT22;12115;47.128;15.422;2024-03-29T07:07:11;5.80;99.90
23869;DHT22;12115;47.128;15.422;2024-03-29T07:09:37;5.90;99.90
23869;DHT22;12115;47.128;15.422;2024-03-29T07:12:04;6.00;99.90
23869;DHT22;12115;47.128;15.422;2024-03-29T07:14:30;6.10;99.90
23869;DHT22;12115;47.128;15.422;2024-03-29T07:16:58;6.20;99.90
23869;DHT22;12115;47.128;15.422;2024-03-29T07:19:25;6.20;99.90
23869;DHT22;12115;47.128;15.422;2024-03-29T07:21:51;6.40;99.90
23869;DHT22;12115;47.128;15.422;2024-03-29T07:24:19;6.40;99.90
23869;DHT22;12115;47.128;15.422;2024-03-29T07:26:46;6.50;99.90
23869;DHT22;12115;47.128;15.422;2024-03-29T07:29:12;6.60;99.90
23869;DHT22;12115;47.128;15.422;2024-03-29T07:31:40;6.80;99.90
23869;DHT22;12115;47.128;15.422;2024-03-29T07:34:06;6.90;99.90
23869;DHT22;12115;47.128;15.422;2024-03-29T07:36:32;7.00;99.90
23869;DHT22;12115;47.128;15.422;2024-03-29T07:39:02;7.00;99.90
23869;DHT22;12115;47.128;15.422;2024-03-29T07:41:30;7.10;99.90
23869;DHT22;12115;47.128;15.422;2024-03-29T07:43:57;7.10;99.90
23869;DHT22;12115;47.128;15.422;2024-03-29T07:46:35;7.10;99.90
23869;DHT22;12115;47.128;15.422;2024-03-29T07:49:02;7.20;99.90
23869;DHT22;12115;47.128;15.422;2024-03-29T07:51:29;7.30;99.90
23869;DHT22;12115;47.128;15.422;2024-03-29T07:53:56;7.50;99.90
23869;DHT22;12115;47.128;15.422;2024-03-29T07:56:22;7.60;99.90
23869;DHT22;12115;47.128;15.422;2024-03-29T07:58:52;7.60;99.90
23869;DHT22;12115;47.128;15.422;2024-03-29T08:01:20;7.70;99.90
23869;DHT22;12115;47.128;15.422;2024-03-29T08:03:51;7.80;99.90
23869;DHT22;12115;47.128;15.422;2024-03-29T08:06:20;7.90;99.90
23869;DHT22;12115;47.128;15.422;2024-03-29T08:08:50;8.10;99.90
23869;DHT22;12115;47.128;15.422;2024-03-29T08:11:17;8.30;99.90
23869;DHT22;12115;47.128;15.422;2024-03-29T08:13:45;8.40;99.90
23869;DHT22;12115;47.128;15.422;2024-03-29T08:16:11;8.60;99.90
23869;DHT22;12115;47.128;15.422;2024-03-29T08:18:39;8.70;99.90
23869;DHT22;12115;47.128;15.422;2024-03-29T08:21:06;8.90;99.90
23869;DHT22;12115;47.128;15.422;2024-03-29T08:23:41;9.00;99.90
23869;DHT22;12115;47.128;15.422;2024-03-29T08:26:10;9.10;99.90
23869;DHT22;12115;47.128;15.422;2024-03-29T08:28:37;9.30;99.90
23869;DHT22;12115;47.128;15.422;2024-03-29T08:31:05;9.40;99.90
23869;DHT22;12115;47.128;15.422;2024-03-29T08:33:34;9.60;99.90
23869;DHT22;12115;47.128;15.422;2024-03-29T08:36:00;9.70;99.90
23869;DHT22;12115;47.128;15.422;2024-03-29T08:38:26;9.90;99.90
23869;DHT22;12115;47.128;15.422;2024-03-29T08:40:53;10.10;99.90
23869;DHT22;12115;47.128;15.422;2024-03-29T08:43:22;10.30;99.90
23869;DHT22;12115;47.128;15.422;2024-03-29T08:45:54;10.30;99.90
23869;DHT22;12115;47.128;15.422;2024-03-29T08:48:28;10.50;99.90
23869;DHT22;12115;47.128;15.422;2024-03-29T08:50:56;10.70;99.90
23869;DHT22;12115;47.128;15.422;2024-03-29T08:53:34;10.80;99.90
23869;DHT22;12115;47.128;15.422;2024-03-29T08:56:02;11.00;99.90
23869;DHT22;12115;47.128;15.422;2024-03-29T08:58:28;11.10;99.90
23869;DHT22;12115;47.128;15.422;2024-03-29T09:00:55;11.00;99.90
23869;DHT22;12115;47.128;15.422;2024-03-29T09:03:23;11.10;99.90
23869;DHT22;12115;47.128;15.422;2024-03-29T09:05:51;11.30;99.90
23869;DHT22;12115;47.128;15.422;2024-03-29T09:08:18;11.50;99.90
23869;DHT22;12115;47.128;15.422;2024-03-29T09:10:44;11.50;99.90
23869;DHT22;12115;47.128;15.422;2024-03-29T09:13:12;11.70;99.90
23869;DHT22;12115;47.128;15.422;2024-03-29T09:15:38;11.90;99.90
23869;DHT22;12115;47.128;15.422;2024-03-29T09:18:05;12.20;99.90
23869;DHT22;12115;47.128;15.422;2024-03-29T09:21:00;12.40;99.90
23869;DHT22;12115;47.128;15.422;2024-03-29T09:23:27;12.60;99.90
23869;DHT22;12115;47.128;15.422;2024-03-29T09:26:03;12.70;99.90
23869;DHT22;12115;47.128;15.422;2024-03-29T09:28:31;13.00;99.90
23869;DHT22;12115;47.128;15.422;2024-03-29T09:31:00;13.10;99.90
23869;DHT22;12115;47.128;15.422;2024-03-29T09:33:29;13.20;99.90
23869;DHT22;12115;47.128;15.422;2024-03-29T09:35:56;13.40;99.90
23869;DHT22;12115;47.128;15.422;2024-03-29T09:38:29;13.40;99.90
23869;DHT22;12115;47.128;15.422;2024-03-29T09:41:19;13.40;99.90
23869;DHT22;12115;47.128;15.422;2024-03-29T09:43:53;13.50;99.90
23869;DHT22;12115;47.128;15.422;2024-03-29T09:46:27;13.70;99.90
23869;DHT22;12115;47.128;15.422;2024-03-29T09:52:21;13.90;99.90
23869;DHT22;12115;47.128;15.422;2024-03-29T09:54:48;14.20;99.90
23869;DHT22;12115;47.128;15.422;2024-03-29T09:57:37;14.30;99.90
23869;DHT22;12115;47.128;15.422;2024-03-29T10:00:08;14.20;99.90
23869;DHT22;12115;47.128;15.422;2024-03-29T10:02:40;14.20;99.90
23869;DHT22;12115;47.128;15.422;2024-03-29T10:05:14;14.00;99.90
23869;DHT22;12115;47.128;15.422;2024-03-29T10:07:45;14.00;99.90
23869;DHT22;12115;47.128;15.422;2024-03-29T10:10:13;14.20;99.90
23869;DHT22;12115;47.128;15.422;2024-03-29T10:12:47;14.30;99.90
23869;DHT22;12115;47.128;15.422;2024-03-29T10:15:17;14.20;99.90
23869;DHT22;12115;47.128;15.422;2024-03-29T10:17:49;14.10;99.90
23869;DHT22;12115;47.128;15.422;2024-03-29T10:20:18;14.10;99.90
23869;DHT22;12115;47.128;15.422;2024-03-29T10:22:46;14.10;99.90
23869;DHT22;12115;47.128;15.422;2024-03-29T10:25:14;14.10;99.90
23869;DHT22;12115;47.128;15.422;2024-03-29T10:27:41;14.20;99.90
23869;DHT22;12115;47.128;15.422;2024-03-29T10:30:09;14.00;99.90
23869;DHT22;12115;47.128;15.422;2024-03-29T10:32:39;14.00;99.90
23869;DHT22;12115;47.128;15.422;2024-03-29T10:35:09;14.10;99.90
23869;DHT22;12115;47.128;15.422;2024-03-29T10:37:37;14.30;99.90
23869;DHT22;12115;47.128;15.422;2024-03-29T10:40:12;14.20;99.90
23869;DHT22;12115;47.128;15.422;2024-03-29T10:42:45;14.20;99.90
23869;DHT22;12115;47.128;15.422;2024-03-29T10:45:14;14.20;99.90
23869;DHT22;12115;47.128;15.422;2024-03-29T10:47:45;14.20;99.90
23869;DHT22;12115;47.128;15.422;2024-03-29T10:50:15;14.30;99.90
23869;DHT22;12115;47.128;15.422;2024-03-29T10:52:45;14.40;99.90
23869;DHT22;12115;47.128;15.422;2024-03-29T10:55:36;14.40;99.90
23869;DHT22;12115;47.128;15.422;2024-03-29T10:58:05;14.30;99.90
23869;DHT22;12115;47.128;15.422;2024-03-29T11:00:47;14.50;99.90
23869;DHT22;12115;47.128;15.422;2024-03-29T11:03:20;14.60;99.90
23869;DHT22;12115;47.128;15.422;2024-03-29T11:06:02;14.60;99.90
23869;DHT22;12115;47.128;15.422;2024-03-29T11:08:37;14.70;99.90
23869;DHT22;12115;47.128;15.422;2024-03-29T11:11:13;14.80;99.90
23869;DHT22;12115;47.128;15.422;2024-03-29T11:14:02;14.90;99.90
23869;DHT22;12115;47.128;15.422;2024-03-29T11:16:42;14.90;99.90
23869;DHT22;12115;47.128;15.422;2024-03-29T11:19:15;15.00;99.90
23869;DHT22;12115;47.128;15.422;2024-03-29T11:21:46;15.00;99.90
23869;DHT22;12115;47.128;15.422;2024-03-29T11:24:18;15.00;99.90
23869;DHT22;12115;47.128;15.422;2024-03-29T11:26:51;14.90;99.90
23869;DHT22;12115;47.128;15.422;2024-03-29T11:29:31;14.90;99.90
23869;DHT22;12115;47.128;15.422;2024-03-29T11:32:08;15.00;99.90
23869;DHT22;12115;47.128;15.422;2024-03-29T11:34:52;15.00;99.90
23869;DHT22;12115;47.128;15.422;2024-03-29T11:37:58;15.00;99.90
23869;DHT22;12115;47.128;15.422;2024-03-29T11:40:33;15.00;99.90
23869;DHT22;12115;47.128;15.422;2024-03-29T11:43:04;15.00;99.90
23869;DHT22;12115;47.128;15.422;2024-03-29T11:45:35;14.90;99.90
23869;DHT22;12115;47.128;15.422;2024-03-29T11:48:10;14.90;99.90
23869;DHT22;12115;47.128;15.422;2024-03-29T11:50:40;14.90;99.90
23869;DHT22;12115;47.128;15.422;2024-03-29T11:53:17;14.90;99.90
23869;DHT22;12115;47.128;15.422;2024-03-29T11:55:45;14.90;99.90
23869;DHT22;12115;47.128;15.422;2024-03-29T11:58:42;14.80;99.90
23869;DHT22;12115;47.128;15.422;2024-03-29T12:01:14;14.90;99.90
23869;DHT22;12115;47.128;15.422;2024-03-29T12:03:44;14.90;99.90
23869;DHT22;12115;47.128;15.422;2024-03-29T12:06:17;15.00;99.90
23869;DHT22;12115;47.128;15.422;2024-03-29T12:08:53;14.90;99.90
23869;DHT22;12115;47.128;15.422;2024-03-29T12:11:25;14.90;99.90
23869;DHT22;12115;47.128;15.422;2024-03-29T12:13:58;14.90;99.90
23869;DHT22;12115;47.128;15.422;2024-03-29T12:16:25;15.00;99.90
23869;DHT22;12115;47.128;15.422;2024-03-29T12:18:57;15.00;99.90
23869;DHT22;12115;47.128;15.422;2024-03-29T12:21:26;15.10;99.90
23869;DHT22;12115;47.128;15.422;2024-03-29T12:24:02;15.10;99.90
23869;DHT22;12115;47.128;15.422;2024-03-29T12:26:33;15.20;99.90
23869;DHT22;12115;47.128;15.422;2024-03-29T12:29:03;15.10;99.90
23869;DHT22;12115;47.128;15.422;2024-03-29T12:31:40;15.10;99.90
23869;DHT22;12115;47.128;15.422;2024-03-29T12:34:09;15.00;99.90
23869;DHT22;12115;47.128;15.422;2024-03-29T12:36:38;15.10;99.90
23869;DHT22;12115;47.128;15.422;2024-03-29T12:39:08;15.10;99.90
23869;DHT22;12115;47.128;15.422;2024-03-29T12:41:43;15.20;99.90
23869;DHT22;12115;47.128;15.422;2024-03-29T12:44:13;15.20;99.90
23869;DHT22;12115;47.128;15.422;2024-03-29T12:46:40;15.30;99.90
23869;DHT22;12115;47.128;15.422;2024-03-29T12:49:10;15.30;99.90
23869;DHT22;12115;47.128;15.422;2024-03-29T12:51:40;15.30;99.90
23869;DHT22;12115;47.128;15.422;2024-03-29T12:54:07;15.20;99.90
23869;DHT22;12115;47.128;15.422;2024-03-29T12:56:35;15.30;99.90
23869;DHT22;12115;47.128;15.422;2024-03-29T12:59:03;15.30;99.90
23869;DHT22;12115;47.128;15.422;2024-03-29T13:01:31;15.40;99.90
23869;DHT22;12115;47.128;15.422;2024-03-29T13:03:59;15.40;99.90
23869;DHT22;12115;47.128;15.422;2024-03-29T13:06:28;15.40;99.90
23869;DHT22;12115;47.128;15.422;2024-03-29T13:08:55;15.40;99.90
23869;DHT22;12115;47.128;15.422;2024-03-29T13:11:25;15.40;99.90
23869;DHT22;12115;47.128;15.422;2024-03-29T13:13:54;15.50;99.90
23869;DHT22;12115;47.128;15.422;2024-03-29T13:16:22;15.50;99.90
23869;DHT22;12115;47.128;15.422;2024-03-29T13:19:18;15.60;99.90
23869;DHT22;12115;47.128;15.422;2024-03-29T13:22:26;15.60;99.90
23869;DHT22;12115;47.128;15.422;2024-03-29T13:25:19;15.60;99.90
23869;DHT22;12115;47.128;15.422;2024-03-29T13:27:54;15.60;99.90
23869;DHT22;12115;47.128;15.422;2024-03-29T13:30:26;15.60;99.90
23869;DHT22;12115;47.128;15.422;2024-03-29T13:32:55;15.60;99.90
23869;DHT22;12115;47.128;15.422;2024-03-29T13:35:24;15.60;99.90
23869;DHT22;12115;47.128;15.422;2024-03-29T13:37:52;15.70;99.90
23869;DHT22;12115;47.128;15.422;2024-03-29T13:40:47;15.70;99.90
23869;DHT22;12115;47.128;15.422;2024-03-29T13:43:15;15.70;99.90
23869;DHT22;12115;47.128;15.422;2024-03-29T13:53:29;15.70;99.90
23869;DHT22;12115;47.128;15.422;2024-03-29T13:56:06;15.70;99.90
23869;DHT22;12115;47.128;15.422;2024-03-29T13:58:39;15.70;99.90
23869;DHT22;12115;47.128;15.422;2024-03-29T14:01:07;15.70;99.90
23869;DHT22;12115;47.128;15.422;2024-03-29T14:04:01;15.70;99.90
23869;DHT22;12115;47.128;15.422;2024-03-29T14:06:30;15.70;99.90
23869;DHT22;12115;47.128;15.422;2024-03-29T14:09:02;15.70;99.90
23869;DHT22;12115;47.128;15.422;2024-03-29T14:11:31;15.60;99.90
23869;DHT22;12115;47.128;15.422;2024-03-29T14:14:02;15.60;99.90
23869;DHT22;12115;47.128;15.422;2024-03-29T14:16:29;15.70;99.90
23869;DHT22;12115;47.128;15.422;2024-03-29T14:19:28;15.70;99.90
23869;DHT22;12115;47.128;15.422;2024-03-29T14:26:04;15.80;99.90
23869;DHT22;12115;47.128;15.422;2024-03-29T14:28:49;15.80;99.90
23869;DHT22;12115;47.128;15.422;2024-03-29T14:34:41;15.70;99.90
23869;DHT22;12115;47.128;15.422;2024-03-29T14:37:18;15.70;99.90
23869;DHT22;12115;47.128;15.422;2024-03-29T14:39:53;15.80;99.90
23869;DHT22;12115;47.128;15.422;2024-03-29T14:42:35;15.80;99.90
23869;DHT22;12115;47.128;15.422;2024-03-29T14:45:19;15.80;99.90
23869;DHT22;12115;47.128;15.422;2024-03-29T14:47:48;15.80;99.90
23869;DHT22;12115;47.128;15.422;2024-03-29T14:50:25;15.90;99.90
23869;DHT22;12115;47.128;15.422;2024-03-29T15:01:33;15.90;99.90
23869;DHT22;12115;47.128;15.422;2024-03-29T15:04:25;15.80;99.90
23869;DHT22;12115;47.128;15.422;2024-03-29T15:06:56;15.70;99.90
23869;DHT22;12115;47.128;15.422;2024-03-29T15:09:58;15.70;99.90
23869;DHT22;12115;47.128;15.422;2024-03-29T15:13:57;15.70;99.90
23869;DHT22;12115;47.128;15.422;2024-03-29T15:16:34;15.70;99.90
23869;DHT22;12115;47.128;15.422;2024-03-29T15:19:09;15.70;99.90
23869;DHT22;12115;47.128;15.422;2024-03-29T15:34:11;15.70;99.90
23869;DHT22;12115;47.128;15.422;2024-03-29T15:36:59;15.70;99.90
23869;DHT22;12115;47.128;15.422;2024-03-29T15:39:45;15.60;99.90
23869;DHT22;12115;47.128;15.422;2024-03-29T15:42:12;15.50;99.90
23869;DHT22;12115;47.128;15.422;2024-03-29T15:53:30;15.40;99.90
23869;DHT22;12115;47.128;15.422;2024-03-29T15:56:49;15.40;99.90
23869;DHT22;12115;47.128;15.422;2024-03-29T15:59:24;15.40;99.90
23869;DHT22;12115;47.128;15.422;2024-03-29T16:01:56;15.40;99.90
23869;DHT22;12115;47.128;15.422;2024-03-29T16:04:24;15.50;99.90
23869;DHT22;12115;47.128;15.422;2024-03-29T16:07:18;15.50;99.90
23869;DHT22;12115;47.128;15.422;2024-03-29T16:09:52;15.50;99.90
23869;DHT22;12115;47.128;15.422;2024-03-29T16:12:24;15.50;99.90
23869;DHT22;12115;47.128;15.422;2024-03-29T16:16:00;15.50;99.90
23869;DHT22;12115;47.128;15.422;2024-03-29T16:18:40;15.50;99.90
23869;DHT22;12115;47.128;15.422;2024-03-29T16:26:37;15.50;99.90
23869;DHT22;12115;47.128;15.422;2024-03-29T16:29:08;15.50;99.90
23869;DHT22;12115;47.128;15.422;2024-03-29T16:32:20;15.50;99.90
23869;DHT22;12115;47.128;15.422;2024-03-29T16:34:54;15.40;99.90
23869;DHT22;12115;47.128;15.422;2024-03-29T16:37:30;15.40;99.90
23869;DHT22;12115;47.128;15.422;2024-03-29T16:40:00;15.40;99.90
23869;DHT22;12115;47.128;15.422;2024-03-29T16:42:30;15.40;99.90